Time;durP1;ratioP1;P1;durP2;ratioP2;P2;SDS_P1;SDS_P2;PMS_P1;PMS_P2;Temp;Humidity;BMP_temperature;BMP_pressure;BME280_temperature;BME280_humidity;BME280_pressure;Samples;Min_cycle;Max_cycle;Signal;HPM_P1;HPM_P2
2023/12/16 00:01:00;;;;;;;31.35;16.17;;;3.00;99.90;;;;;;4891949;29;20534;-64
2023/12/16 00:03:27;;;;;;;35.25;17.52;;;2.90;99.90;;;;;;4891844;29;20617;-64
2023/12/16 00:05:54;;;;;;;38.58;16.67;;;3.00;99.90;;;;;;4894337;29;20045;-64
2023/12/16 00:08:22;;;;;;;36.20;16.45;;;3.00;99.90;;;;;;4892094;29;20406;-65
2023/12/16 00:10:49;;;;;;;34.03;15.65;;;3.00;99.90;;;;;;4891425;29;20494;-64
2023/12/16 00:13:20;;;;;;;36.03;17.45;;;3.10;99.90;;;;;;4893676;29;20391;-64
2023/12/16 00:15:47;;;;;;;34.85;17.05;;;3.00;99.90;;;;;;4886696;29;20094;-65
2023/12/16 00:18:14;;;;;;;37.50;17.17;;;3.00;99.90;;;;;;4887706;29;20079;-64
2023/12/16 00:20:41;;;;;;;34.83;16.73;;;3.10;99.90;;;;;;4892382;29;20041;-64
2023/12/16 00:23:08;;;;;;;40.50;18.58;;;3.10;99.90;;;;;;4896901;29;20156;-64
2023/12/16 00:25:34;;;;;;;37.78;17.55;;;3.10;99.90;;;;;;4881780;29;20498;-64
2023/12/16 00:28:01;;;;;;;41.28;17.88;;;3.10;99.90;;;;;;4893671;29;20992;-64
2023/12/16 00:30:28;;;;;;;34.55;16.55;;;3.10;99.90;;;;;;4884940;29;20049;-64
2023/12/16 00:32:55;;;;;;;33.10;16.55;;;3.00;99.90;;;;;;4897051;29;20040;-64
2023/12/16 00:35:22;;;;;;;34.05;16.08;;;3.00;99.90;;;;;;4890062;29;20045;-64
2023/12/16 00:37:48;;;;;;;35.45;14.05;;;3.10;99.90;;;;;;4893536;29;20041;-64
2023/12/16 00:40:15;;;;;;;26.25;13.00;;;3.10;99.90;;;;;;4888136;29;20041;-64
2023/12/16 00:42:42;;;;;;;23.88;12.05;;;3.00;99.90;;;;;;4890696;29;20052;-64
2023/12/16 00:45:09;;;;;;;27.27;11.88;;;3.10;99.90;;;;;;4891645;29;20040;-64
2023/12/16 00:47:37;;;;;;;24.80;12.20;;;3.00;99.90;;;;;;4891142;29;20511;-64
2023/12/16 00:50:05;;;;;;;28.52;13.77;;;3.10;99.90;;;;;;4894169;29;20418;-64
2023/12/16 00:52:32;;;;;;;30.58;14.30;;;3.00;99.90;;;;;;4898458;29;20498;-64
2023/12/16 00:54:59;;;;;;;38.70;17.23;;;3.00;99.90;;;;;;4892248;29;20048;-64
2023/12/16 00:57:26;;;;;;;33.50;15.43;;;3.00;99.90;;;;;;4893209;29;20071;-64
2023/12/16 00:59:52;;;;;;;34.17;16.10;;;3.00;99.90;;;;;;4887940;29;20036;-64
2023/12/16 01:02:19;;;;;;;32.88;15.25;;;3.10;99.90;;;;;;4876723;29;20402;-64
2023/12/16 01:04:46;;;;;;;35.17;15.27;;;3.10;99.90;;;;;;4894439;29;20053;-64
2023/12/16 01:07:13;;;;;;;30.88;15.45;;;3.20;99.90;;;;;;4891336;29;20055;-64
2023/12/16 01:09:40;;;;;;;33.10;14.10;;;3.10;99.90;;;;;;4888096;29;20049;-65
2023/12/16 01:12:06;;;;;;;30.17;15.35;;;3.20;99.90;;;;;;4891991;29;20059;-64
2023/12/16 01:14:33;;;;;;;33.80;14.98;;;3.20;99.90;;;;;;4877803;29;20063;-65
2023/12/16 01:17:00;;;;;;;31.98;14.38;;;3.20;99.90;;;;;;4889372;29;20041;-65
2023/12/16 01:19:27;;;;;;;33.00;15.52;;;3.20;99.90;;;;;;4891590;29;20052;-64
2023/12/16 01:21:54;;;;;;;31.95;15.30;;;3.20;99.90;;;;;;4893467;29;20498;-65
2023/12/16 01:24:21;;;;;;;34.72;16.23;;;3.20;99.90;;;;;;4890998;29;20100;-65
2023/12/16 01:26:47;;;;;;;32.65;15.68;;;3.20;99.90;;;;;;4885639;29;20048;-64
2023/12/16 01:29:14;;;;;;;31.17;15.52;;;3.20;99.90;;;;;;4890022;29;20049;-65
2023/12/16 01:31:41;;;;;;;34.83;16.65;;;3.20;99.90;;;;;;4889518;29;20077;-64
2023/12/16 01:34:08;;;;;;;35.05;16.70;;;3.10;99.90;;;;;;4893930;29;20068;-65
2023/12/16 01:36:36;;;;;;;32.67;15.60;;;3.10;99.90;;;;;;4892957;29;20494;-64
2023/12/16 01:39:03;;;;;;;34.53;16.30;;;3.10;99.90;;;;;;4892287;29;20040;-65
2023/12/16 01:41:29;;;;;;;36.80;15.32;;;3.10;99.90;;;;;;4896583;29;20044;-64
2023/12/16 01:43:56;;;;;;;37.67;15.68;;;3.20;99.90;;;;;;4887798;29;20049;-64
2023/12/16 01:46:23;;;;;;;36.60;17.08;;;3.10;99.90;;;;;;4890395;29;20052;-64
2023/12/16 01:48:50;;;;;;;;;;;3.10;99.90;;;;;;4896393;29;20049;-64
2023/12/16 01:51:18;;;;;;;36.03;14.93;;;3.20;99.90;;;;;;4886601;29;20015;-64
2023/12/16 01:53:46;;;;;;;33.40;15.88;;;3.20;99.90;;;;;;4894032;29;20494;-64
2023/12/16 01:56:14;;;;;;;39.58;15.82;;;3.10;99.90;;;;;;4890609;29;20091;-64
2023/12/16 01:58:41;;;;;;;33.25;14.70;;;3.10;99.90;;;;;;4895533;29;20410;-64
2023/12/16 02:01:08;;;;;;;30.67;14.98;;;3.10;99.90;;;;;;4892349;29;20044;-64
2023/12/16 02:03:37;;;;;;;31.48;14.93;;;3.10;99.90;;;;;;4887566;29;20049;-64
2023/12/16 02:06:04;;;;;;;29.40;14.05;;;3.10;99.90;;;;;;4895773;29;20379;-64
2023/12/16 02:08:31;;;;;;;28.08;14.13;;;3.10;99.90;;;;;;4894807;29;20076;-64
2023/12/16 02:10:58;;;;;;;29.80;14.60;;;3.10;99.90;;;;;;4897527;29;20053;-64
2023/12/16 02:13:25;;;;;;;26.23;12.82;;;3.10;99.90;;;;;;4894733;29;20044;-64
2023/12/16 02:15:52;;;;;;;27.95;13.90;;;3.00;99.90;;;;;;4901756;29;20044;-64
2023/12/16 02:18:19;;;;;;;30.85;15.57;;;3.00;99.90;;;;;;4904403;29;20053;-64
2023/12/16 02:20:46;;;;;;;32.17;15.80;;;3.00;99.90;;;;;;4893319;29;20044;-64
2023/12/16 02:23:16;;;;;;;;;;;3.00;99.90;;;;;;4899913;29;20112;-64
2023/12/16 02:25:44;;;;;;;28.23;12.88;;;3.00;99.90;;;;;;4898217;29;20299;-64
2023/12/16 02:28:11;;;;;;;21.63;10.95;;;3.00;99.90;;;;;;4899531;29;20045;-64
2023/12/16 02:30:38;;;;;;;22.35;11.23;;;3.00;99.90;;;;;;4892959;29;20048;-64
2023/12/16 02:33:05;;;;;;;25.63;12.00;;;3.00;99.90;;;;;;4899300;29;20398;-64
2023/12/16 02:35:33;;;;;;;23.55;11.95;;;3.00;99.90;;;;;;4898682;29;20080;-64
2023/12/16 02:38:00;;;;;;;30.83;14.45;;;3.00;99.90;;;;;;4895893;29;20079;-64
2023/12/16 02:40:27;;;;;;;;;;;3.00;99.90;;;;;;4899826;29;20040;-64
2023/12/16 02:42:54;;;;;;;31.38;14.10;;;3.00;99.90;;;;;;4892153;29;19924;-65
2023/12/16 02:45:21;;;;;;;30.05;14.65;;;3.00;99.90;;;;;;4898489;29;20045;-64
2023/12/16 02:47:48;;;;;;;30.75;14.55;;;2.90;99.90;;;;;;4898752;29;20049;-64
2023/12/16 02:50:15;;;;;;;24.10;10.65;;;2.90;99.90;;;;;;4892003;29;20520;-64
2023/12/16 02:52:41;;;;;;;37.30;14.73;;;2.90;99.90;;;;;;4896204;29;20048;-64
2023/12/16 02:55:08;;;;;;;35.90;15.57;;;2.90;99.90;;;;;;4897020;29;20557;-64
2023/12/16 02:57:35;;;;;;;28.05;13.13;;;2.90;99.90;;;;;;4896750;29;20049;-64
2023/12/16 03:00:03;;;;;;;27.40;13.25;;;2.90;99.90;;;;;;4897959;29;20040;-64
2023/12/16 03:02:30;;;;;;;29.58;14.27;;;2.90;99.90;;;;;;4898308;29;20054;-64
2023/12/16 03:04:57;;;;;;;26.52;13.25;;;2.80;99.90;;;;;;4893751;29;20418;-64
2023/12/16 03:07:24;;;;;;;26.30;13.27;;;2.90;99.90;;;;;;4898015;29;20083;-64
2023/12/16 03:09:50;;;;;;;25.25;13.27;;;2.90;99.90;;;;;;4897469;29;20044;-64
2023/12/16 03:12:17;;;;;;;28.58;13.20;;;2.90;99.90;;;;;;4881733;29;20521;-64
2023/12/16 03:14:44;;;;;;;28.98;14.10;;;3.00;99.90;;;;;;4898081;29;20127;-64
2023/12/16 03:17:12;;;;;;;27.48;14.15;;;3.00;99.90;;;;;;4897084;29;20048;-64
2023/12/16 03:19:39;;;;;;;25.10;13.98;;;3.00;99.90;;;;;;4898595;29;20079;-64
2023/12/16 03:22:06;;;;;;;29.38;13.02;;;3.00;99.90;;;;;;4896145;29;20056;-64
2023/12/16 03:24:32;;;;;;;25.92;13.68;;;3.00;99.90;;;;;;4897576;29;20048;-64
2023/12/16 03:26:59;;;;;;;23.70;12.88;;;3.00;99.90;;;;;;4897821;29;20060;-64
2023/12/16 03:29:28;;;;;;;20.48;10.10;;;3.00;99.90;;;;;;4906080;29;20510;-64
2023/12/16 03:31:55;;;;;;;29.48;14.98;;;3.00;99.90;;;;;;4890307;29;20135;-64
2023/12/16 03:34:22;;;;;;;20.77;10.32;;;2.90;99.90;;;;;;4897856;29;20067;-64
2023/12/16 03:36:49;;;;;;;32.58;14.30;;;2.90;99.90;;;;;;4891755;29;20061;-64
2023/12/16 03:39:16;;;;;;;20.33;9.77;;;2.90;99.90;;;;;;4898770;29;20491;-64
2023/12/16 03:41:42;;;;;;;25.45;14.13;;;2.90;99.90;;;;;;4880272;29;20044;-64
2023/12/16 03:44:09;;;;;;;29.55;14.32;;;3.00;99.90;;;;;;4894838;29;20037;-64
2023/12/16 03:46:36;;;;;;;29.77;13.95;;;3.00;99.90;;;;;;4894295;29;20048;-64
2023/12/16 03:49:03;;;;;;;21.35;10.68;;;3.00;99.90;;;;;;4900141;29;20080;-64
2023/12/16 03:51:30;;;;;;;27.30;14.10;;;2.90;99.90;;;;;;4897922;29;20045;-64
2023/12/16 03:53:56;;;;;;;32.92;15.75;;;2.90;99.90;;;;;;4890089;29;20049;-64
2023/12/16 03:56:23;;;;;;;26.55;14.20;;;2.90;99.90;;;;;;4897438;29;20522;-64
2023/12/16 03:58:50;;;;;;;30.08;14.60;;;2.90;99.90;;;;;;4896809;29;20048;-64
2023/12/16 04:01:17;;;;;;;29.95;14.90;;;2.90;99.90;;;;;;4892968;29;20044;-64
2023/12/16 04:03:44;;;;;;;30.77;14.77;;;2.80;99.90;;;;;;4890327;29;20040;-64
2023/12/16 04:06:14;;;;;;;28.70;15.18;;;2.90;99.90;;;;;;4897314;29;20052;-64
2023/12/16 04:08:41;;;;;;;32.67;14.43;;;2.90;99.90;;;;;;4898417;29;20395;-64
2023/12/16 04:11:08;;;;;;;28.77;14.43;;;2.90;99.90;;;;;;4891740;29;20492;-64
2023/12/16 04:13:35;;;;;;;30.85;14.68;;;2.80;99.90;;;;;;4895659;29;20048;-64
2023/12/16 04:16:03;;;;;;;;;;;2.90;99.90;;;;;;4896756;29;20036;-64
2023/12/16 04:18:31;;;;;;;34.70;15.97;;;2.90;99.90;;;;;;4896684;29;19974;-64
2023/12/16 04:20:59;;;;;;;31.13;14.75;;;2.90;99.90;;;;;;4889812;29;20055;-64
2023/12/16 04:23:27;;;;;;;35.28;15.50;;;2.90;99.90;;;;;;4897142;29;20045;-64
2023/12/16 04:25:54;;;;;;;30.10;14.10;;;2.90;99.90;;;;;;4895881;29;20044;-64
2023/12/16 04:28:21;;;;;;;28.20;13.07;;;2.80;99.90;;;;;;4897410;29;20048;-64
2023/12/16 04:30:48;;;;;;;24.08;12.45;;;2.90;99.90;;;;;;4889847;29;20045;-64
2023/12/16 04:33:14;;;;;;;30.60;14.15;;;2.90;99.90;;;;;;4888821;29;20164;-64
2023/12/16 04:35:42;;;;;;;28.90;12.52;;;2.90;99.90;;;;;;4896742;29;20447;-64
2023/12/16 04:38:09;;;;;;;23.65;11.63;;;3.00;99.90;;;;;;4896550;29;20041;-65
2023/12/16 04:40:36;;;;;;;24.58;12.20;;;3.00;99.90;;;;;;4897204;29;20036;-64
2023/12/16 04:43:03;;;;;;;24.83;12.65;;;3.00;99.90;;;;;;4889318;29;20044;-64
2023/12/16 04:45:30;;;;;;;28.60;13.52;;;3.00;99.90;;;;;;4896496;29;20058;-64
2023/12/16 04:47:57;;;;;;;35.85;16.50;;;3.00;99.90;;;;;;4896678;29;20490;-64
2023/12/16 04:50:23;;;;;;;36.67;16.48;;;2.90;99.90;;;;;;4891981;29;20057;-64
2023/12/16 04:52:50;;;;;;;33.78;16.20;;;3.00;99.90;;;;;;4893776;29;20040;-64
2023/12/16 04:55:17;;;;;;;32.30;16.73;;;3.00;99.90;;;;;;4893371;29;20047;-64
2023/12/16 04:57:45;;;;;;;;;;;3.00;99.90;;;;;;4893515;29;20048;-64
2023/12/16 05:00:13;;;;;;;29.65;14.73;;;3.10;99.90;;;;;;4895555;29;19931;-64
2023/12/16 05:02:40;;;;;;;34.38;16.50;;;3.10;99.90;;;;;;4903104;29;20127;-64
2023/12/16 05:05:07;;;;;;;36.65;17.55;;;3.10;99.90;;;;;;4882375;29;20131;-65
2023/12/16 05:07:34;;;;;;;37.67;17.85;;;3.10;99.90;;;;;;4896671;29;20409;-65
2023/12/16 05:10:01;;;;;;;38.47;18.67;;;3.20;99.90;;;;;;4895944;29;20529;-64
2023/12/16 05:12:30;;;;;;;38.47;18.23;;;3.20;99.90;;;;;;4896893;29;20127;-64
2023/12/16 05:15:03;;;;;;;34.20;16.50;;;3.20;99.90;;;;;;4888057;29;20491;-64
2023/12/16 05:17:30;;;;;;;30.83;16.08;;;3.20;99.90;;;;;;4896219;29;20115;-64
2023/12/16 05:19:57;;;;;;;34.83;17.00;;;3.10;99.90;;;;;;4879243;29;20051;-64
2023/12/16 05:22:24;;;;;;;41.83;18.60;;;3.10;99.90;;;;;;4895072;29;20055;-64
2023/12/16 05:24:51;;;;;;;41.72;18.10;;;3.10;99.90;;;;;;4895344;29;20051;-64
2023/12/16 05:27:18;;;;;;;38.50;18.17;;;3.20;99.90;;;;;;4888535;29;20076;-65
2023/12/16 05:29:45;;;;;;;35.15;17.73;;;3.20;99.90;;;;;;4890082;29;20032;-64
2023/12/16 05:32:11;;;;;;;36.20;16.98;;;3.20;99.90;;;;;;4896026;29;20369;-64
2023/12/16 05:34:38;;;;;;;40.70;17.98;;;3.30;99.90;;;;;;4895814;29;20037;-64
2023/12/16 05:37:05;;;;;;;34.13;17.58;;;3.30;99.90;;;;;;4888302;29;20052;-64
2023/12/16 05:39:32;;;;;;;35.15;17.98;;;3.30;99.90;;;;;;4896187;29;20044;-64
2023/12/16 05:41:58;;;;;;;35.97;17.73;;;3.30;99.90;;;;;;4891222;29;20083;-65
2023/12/16 05:44:25;;;;;;;40.13;18.23;;;3.30;99.90;;;;;;4889514;29;20128;-65
2023/12/16 05:46:52;;;;;;;35.65;17.42;;;3.30;99.90;;;;;;4894405;29;20255;-64
2023/12/16 05:49:19;;;;;;;35.22;16.70;;;3.20;99.90;;;;;;4883377;29;20050;-64
2023/12/16 05:51:46;;;;;;;37.25;17.35;;;3.20;99.90;;;;;;4895767;29;20115;-64
2023/12/16 05:54:12;;;;;;;33.33;16.52;;;3.20;99.90;;;;;;4888096;29;20478;-64
2023/12/16 05:56:39;;;;;;;35.20;16.67;;;3.10;99.90;;;;;;4896126;29;20040;-64
2023/12/16 05:59:06;;;;;;;39.55;18.20;;;3.10;99.90;;;;;;4894596;29;20506;-65
2023/12/16 06:01:33;;;;;;;41.15;18.63;;;3.00;99.90;;;;;;4889607;29;20076;-64
2023/12/16 06:04:00;;;;;;;39.42;18.73;;;3.00;99.90;;;;;;4895697;29;20048;-64
2023/12/16 06:06:27;;;;;;;39.45;18.27;;;3.00;99.90;;;;;;4889311;29;20467;-64
2023/12/16 06:08:53;;;;;;;31.25;15.23;;;3.10;99.90;;;;;;4896005;29;20047;-64
2023/12/16 06:11:23;;;;;;;39.63;20.88;;;3.10;99.90;;;;;;4894643;29;20100;-64
2023/12/16 06:13:50;;;;;;;45.00;19.83;;;3.10;99.90;;;;;;4894121;29;20096;-64
2023/12/16 06:16:17;;;;;;;42.42;19.25;;;3.10;99.90;;;;;;4888847;29;20064;-64
2023/12/16 06:18:50;;;;;;;44.45;19.98;;;3.10;99.90;;;;;;4895451;29;20036;-64
2023/12/16 06:21:17;;;;;;;47.85;21.75;;;3.10;99.90;;;;;;4887195;29;20204;-64
2023/12/16 06:23:43;;;;;;;39.58;19.42;;;3.10;99.90;;;;;;4891997;29;20040;-65
2023/12/16 06:26:10;;;;;;;45.17;19.63;;;3.10;99.90;;;;;;4886814;29;20049;-64
2023/12/16 06:28:37;;;;;;;42.00;19.70;;;3.20;99.90;;;;;;4895584;29;20048;-65
2023/12/16 06:31:04;;;;;;;26.90;12.68;;;3.20;99.90;;;;;;4890905;29;20083;-64
2023/12/16 06:33:31;;;;;;;36.53;17.05;;;3.20;99.90;;;;;;4889826;29;20124;-64
2023/12/16 06:35:58;;;;;;;34.03;16.23;;;3.20;99.90;;;;;;4892016;29;20097;-64
2023/12/16 06:38:24;;;;;;;35.03;17.33;;;3.20;99.90;;;;;;4887612;29;20043;-64
2023/12/16 06:40:51;;;;;;;28.45;13.27;;;3.20;99.90;;;;;;4895493;29;20041;-64
2023/12/16 06:43:18;;;;;;;38.83;18.30;;;3.30;99.90;;;;;;4893283;29;20127;-64
2023/12/16 06:45:45;;;;;;;36.08;18.60;;;3.30;99.90;;;;;;4895146;29;20051;-65
2023/12/16 06:48:12;;;;;;;37.15;17.10;;;3.30;99.90;;;;;;4894959;29;20045;-63
2023/12/16 06:50:39;;;;;;;35.30;17.17;;;3.30;99.90;;;;;;4890734;29;20459;-64
2023/12/16 06:53:06;;;;;;;38.67;18.08;;;3.40;99.90;;;;;;4892395;29;20510;-64
2023/12/16 06:55:33;;;;;;;36.22;17.48;;;3.40;99.90;;;;;;4895027;29;20108;-64
2023/12/16 06:58:00;;;;;;;31.58;16.63;;;3.40;99.90;;;;;;4889984;29;20513;-64
2023/12/16 07:00:26;;;;;;;35.03;17.88;;;3.40;99.90;;;;;;4898559;29;20044;-64
2023/12/16 07:02:53;;;;;;;41.55;18.48;;;3.40;99.90;;;;;;4898300;29;20127;-64
2023/12/16 07:05:20;;;;;;;37.38;17.98;;;3.40;99.90;;;;;;4892006;29;20127;-64
2023/12/16 07:07:47;;;;;;;35.85;16.05;;;3.30;99.90;;;;;;4898553;29;20040;-65
2023/12/16 07:10:14;;;;;;;32.72;17.05;;;3.30;99.90;;;;;;4898193;29;20056;-64
2023/12/16 07:12:41;;;;;;;33.53;17.08;;;3.40;99.90;;;;;;4898652;29;20044;-64
2023/12/16 07:15:08;;;;;;;37.08;16.73;;;3.40;99.90;;;;;;4891340;29;20040;-64
2023/12/16 07:17:35;;;;;;;;;;;3.40;99.90;;;;;;4885895;29;20438;-64
2023/12/16 07:20:03;;;;;;;33.22;16.25;;;3.40;99.90;;;;;;4898082;29;19934;-65
2023/12/16 07:22:30;;;;;;;41.58;18.67;;;3.40;99.90;;;;;;4902498;29;20047;-65
2023/12/16 07:24:57;;;;;;;44.38;20.33;;;3.40;99.90;;;;;;4897916;29;20474;-64
2023/12/16 07:27:28;;;;;;;36.13;18.52;;;3.40;99.90;;;;;;4898399;29;20075;-65
2023/12/16 07:29:55;;;;;;;25.27;13.30;;;3.40;99.90;;;;;;4898125;29;20523;-64
2023/12/16 07:32:23;;;;;;;26.73;12.77;;;3.50;99.90;;;;;;4905410;29;20048;-64
2023/12/16 07:34:50;;;;;;;30.55;16.38;;;3.50;99.90;;;;;;4892584;29;20096;-64
2023/12/16 07:37:18;;;;;;;32.45;16.65;;;3.50;99.90;;;;;;4897704;29;20040;-64
2023/12/16 07:39:45;;;;;;;30.27;16.83;;;3.40;99.90;;;;;;4898100;29;20455;-64
2023/12/16 07:42:12;;;;;;;35.17;16.98;;;3.50;99.90;;;;;;4896565;29;20497;-64
2023/12/16 07:44:39;;;;;;;46.65;19.98;;;3.50;99.90;;;;;;4900566;29;20048;-64
2023/12/16 07:47:06;;;;;;;46.20;21.83;;;3.50;99.90;;;;;;4897628;29;20048;-64
2023/12/16 07:49:33;;;;;;;48.70;22.70;;;3.50;99.90;;;;;;4896778;29;20059;-64
2023/12/16 07:52:00;;;;;;;69.40;30.63;;;3.60;99.90;;;;;;4897859;29;20171;-64
2023/12/16 07:54:27;;;;;;;42.85;21.90;;;3.70;99.90;;;;;;4897002;29;20502;-64
2023/12/16 07:56:54;;;;;;;35.72;18.75;;;3.70;99.90;;;;;;4897716;29;20040;-64
2023/12/16 07:59:22;;;;;;;28.45;16.55;;;3.70;99.90;;;;;;4892998;29;20060;-64
2023/12/16 08:01:53;;;;;;;41.00;21.60;;;3.80;99.90;;;;;;4897175;29;20037;-64
2023/12/16 08:04:20;;;;;;;30.33;16.08;;;3.70;99.90;;;;;;4897140;29;20049;-64
2023/12/16 08:06:47;;;;;;;36.20;18.52;;;3.70;99.90;;;;;;4895127;29;20100;-64
2023/12/16 08:09:14;;;;;;;;;;;3.70;99.90;;;;;;4897282;29;20052;-64
2023/12/16 08:11:41;;;;;;;42.88;19.42;;;3.70;99.90;;;;;;4888468;29;19930;-65
2023/12/16 08:14:08;;;;;;;33.13;17.10;;;3.70;99.90;;;;;;4896550;29;20053;-65
2023/12/16 08:16:37;;;;;;;43.22;18.88;;;3.60;99.90;;;;;;4897515;29;20037;-65
2023/12/16 08:19:04;;;;;;;43.80;19.83;;;3.60;99.90;;;;;;4896846;29;20562;-64
2023/12/16 08:21:31;;;;;;;;;;;3.50;99.90;;;;;;4896447;29;20041;-64
2023/12/16 08:23:58;;;;;;;28.65;14.80;;;3.50;99.90;;;;;;4897444;29;20337;-64
2023/12/16 08:26:27;;;;;;;36.72;18.63;;;3.50;99.90;;;;;;4897080;29;20054;-64
2023/12/16 08:28:53;;;;;;;28.45;15.15;;;3.50;99.90;;;;;;4890167;29;20048;-64
2023/12/16 08:31:20;;;;;;;26.80;14.18;;;3.50;99.90;;;;;;4896495;29;20053;-64
2023/12/16 08:33:47;;;;;;;38.30;18.45;;;3.50;99.90;;;;;;4886178;29;20398;-64
2023/12/16 08:36:14;;;;;;;29.95;15.90;;;3.50;99.90;;;;;;4893918;29;20650;-64
2023/12/16 08:38:41;;;;;;;31.55;16.58;;;3.60;99.90;;;;;;4896230;29;20044;-64
2023/12/16 08:41:08;;;;;;;37.40;18.65;;;3.50;99.90;;;;;;4899509;29;20041;-64
2023/12/16 08:43:35;;;;;;;31.52;15.18;;;3.50;99.90;;;;;;4889361;29;20048;-64
2023/12/16 08:46:06;;;;;;;24.48;13.77;;;3.50;99.90;;;;;;4890733;29;20070;-64
2023/12/16 08:48:34;;;;;;;28.80;15.18;;;3.60;99.90;;;;;;4897258;29;20080;-64
2023/12/16 08:51:01;;;;;;;29.17;15.05;;;3.70;99.90;;;;;;4904655;29;20100;-64
2023/12/16 08:53:28;;;;;;;27.00;14.98;;;3.90;99.90;;;;;;4891258;29;20045;-64
2023/12/16 08:55:54;;;;;;;23.77;13.35;;;4.00;99.90;;;;;;4897179;29;20114;-64
2023/12/16 08:58:21;;;;;;;28.92;13.88;;;4.10;99.90;;;;;;4896628;29;20049;-64
2023/12/16 09:00:48;;;;;;;18.98;10.77;;;4.20;99.90;;;;;;4892106;29;20049;-64
2023/12/16 09:03:15;;;;;;;25.35;14.43;;;4.10;99.90;;;;;;4894206;29;20044;-64
2023/12/16 09:05:42;;;;;;;26.67;14.13;;;4.20;99.90;;;;;;4896406;29;20124;-64
2023/12/16 09:08:09;;;;;;;25.23;12.45;;;4.40;99.90;;;;;;4896438;29;20072;-64
2023/12/16 09:10:36;;;;;;;22.73;11.00;;;4.50;99.90;;;;;;4888625;29;20461;-65
2023/12/16 09:13:03;;;;;;;26.42;11.55;;;4.60;99.90;;;;;;4896717;29;20068;-64
2023/12/16 09:15:30;;;;;;;23.98;12.90;;;4.60;99.90;;;;;;4895838;29;20044;-64
2023/12/16 09:17:57;;;;;;;20.38;10.68;;;4.60;99.90;;;;;;4894896;29;20040;-64
2023/12/16 09:20:24;;;;;;;19.08;10.57;;;4.50;99.90;;;;;;4896817;29;20037;-64
2023/12/16 09:22:51;;;;;;;19.52;10.40;;;4.40;99.90;;;;;;4895702;29;20047;-64
2023/12/16 09:25:18;;;;;;;13.55;7.97;;;4.50;99.90;;;;;;4896053;29;20050;-64
2023/12/16 09:27:45;;;;;;;19.13;10.02;;;4.60;99.90;;;;;;4895797;29;20049;-64
2023/12/16 09:30:13;;;;;;;23.65;11.57;;;4.70;99.90;;;;;;4896604;29;20131;-64
2023/12/16 09:32:44;;;;;;;18.55;10.13;;;4.70;99.90;;;;;;4886017;29;20044;-64
2023/12/16 09:35:11;;;;;;;18.92;10.43;;;4.80;99.90;;;;;;4894715;29;20501;-64
2023/12/16 09:37:38;;;;;;;18.70;10.45;;;4.70;99.90;;;;;;4896168;29;20047;-64
2023/12/16 09:40:06;;;;;;;25.23;13.63;;;4.50;99.90;;;;;;4887719;29;20048;-64
2023/12/16 09:42:38;;;;;;;22.30;12.15;;;4.50;99.90;;;;;;4895928;29;20048;-64
2023/12/16 09:45:06;;;;;;;18.50;10.35;;;4.70;99.90;;;;;;4894344;29;20055;-64
2023/12/16 09:47:33;;;;;;;20.38;11.50;;;4.90;99.90;;;;;;4895908;29;20155;-64
2023/12/16 09:50:00;;;;;;;16.30;9.25;;;5.00;99.90;;;;;;4896189;29;20115;-64
2023/12/16 09:52:27;;;;;;;16.67;9.73;;;4.90;99.90;;;;;;4892579;29;20071;-64
2023/12/16 09:54:54;;;;;;;;;;;4.50;99.90;;;;;;4896072;29;20036;-64
2023/12/16 09:57:23;;;;;;;18.42;9.90;;;4.30;99.90;;;;;;4896036;29;19924;-64
2023/12/16 09:59:52;;;;;;;18.95;9.98;;;4.20;99.90;;;;;;4896239;29;20429;-64
2023/12/16 10:02:26;;;;;;;19.85;10.10;;;4.30;99.90;;;;;;4891211;29;20044;-64
2023/12/16 10:04:57;;;;;;;19.75;10.75;;;4.40;99.90;;;;;;4893872;29;20132;-64
2023/12/16 10:07:24;;;;;;;20.90;11.85;;;4.60;99.90;;;;;;4895831;29;20514;-64
2023/12/16 10:09:52;;;;;;;;;;;4.70;99.90;;;;;;4897309;29;20045;-64
2023/12/16 10:12:19;;;;;;;28.10;15.03;;;4.90;99.90;;;;;;4893575;29;19924;-65
2023/12/16 10:14:50;;;;;;;26.52;15.13;;;5.10;99.90;;;;;;4895537;29;20036;-65
2023/12/16 10:17:20;;;;;;;25.85;14.18;;;5.00;99.90;;;;;;4893632;29;20048;-65
2023/12/16 10:19:48;;;;;;;26.52;13.65;;;5.00;99.90;;;;;;4894420;29;20044;-64
2023/12/16 10:22:18;;;;;;;26.15;14.32;;;5.10;99.90;;;;;;4895454;29;20088;-64
2023/12/16 10:24:46;;;;;;;25.27;14.30;;;5.30;99.90;;;;;;4893722;29;20044;-64
2023/12/16 10:27:13;;;;;;;25.55;14.18;;;5.70;99.90;;;;;;4895160;29;20134;-65
2023/12/16 10:29:41;;;;;;;23.90;13.50;;;5.90;99.90;;;;;;4894494;29;20060;-64
2023/12/16 10:32:28;;;;;;;21.85;13.23;;;6.10;99.90;;;;;;4897526;29;20068;-65
2023/12/16 10:34:56;;;;;;;23.00;12.13;;;6.20;99.90;;;;;;4897602;29;20105;-65
2023/12/16 10:37:23;;;;;;;;;;;6.00;99.90;;;;;;4899731;29;20045;-64
2023/12/16 10:39:50;;;;;;;19.10;10.60;;;5.90;99.90;;;;;;4899244;29;19923;-65
2023/12/16 10:42:17;;;;;;;16.48;10.73;;;6.00;99.90;;;;;;4896899;29;20509;-64
2023/12/16 10:44:44;;;;;;;21.73;11.65;;;6.10;99.90;;;;;;4898339;29;20131;-64
2023/12/16 10:47:16;;;;;;;18.60;10.50;;;6.10;99.90;;;;;;4899149;29;20053;-65
2023/12/16 10:49:47;;;;;;;16.85;9.93;;;6.00;99.90;;;;;;4898521;29;20040;-65
2023/12/16 10:52:19;;;;;;;18.13;11.07;;;6.00;99.90;;;;;;4898439;29;20049;-64
2023/12/16 10:54:58;;;;;;;17.73;9.27;;;5.80;99.90;;;;;;4898361;29;20060;-65
2023/12/16 10:57:44;;;;;;;17.67;9.75;;;5.60;99.90;;;;;;4894974;29;20124;-65
2023/12/16 11:00:19;;;;;;;19.15;10.55;;;5.30;99.90;;;;;;4899086;29;20036;-65
2023/12/16 11:02:57;;;;;;;19.83;11.63;;;5.10;99.90;;;;;;4898567;29;20048;-64
2023/12/16 11:05:32;;;;;;;17.08;9.85;;;5.10;99.90;;;;;;4892155;29;20116;-64
2023/12/16 11:08:03;;;;;;;17.05;9.45;;;5.20;99.90;;;;;;4896512;29;20040;-64
2023/12/16 11:10:30;;;;;;;19.63;10.98;;;5.30;99.90;;;;;;4898495;29;20064;-65
2023/12/16 11:13:00;;;;;;;18.48;11.40;;;5.40;99.90;;;;;;4898723;29;20051;-64
2023/12/16 11:15:28;;;;;;;17.17;10.60;;;5.50;99.90;;;;;;4894924;29;20056;-65
2023/12/16 11:18:12;;;;;;;19.70;10.20;;;5.70;99.90;;;;;;4898488;29;20079;-64
2023/12/16 11:20:42;;;;;;;16.23;9.68;;;5.70;99.90;;;;;;4898237;29;20048;-64
2023/12/16 11:23:10;;;;;;;19.65;10.07;;;5.60;99.90;;;;;;4895831;29;20053;-64
2023/12/16 11:25:37;;;;;;;15.18;8.48;;;5.50;99.90;;;;;;4897930;29;20128;-64
2023/12/16 11:28:05;;;;;;;17.60;9.93;;;5.30;99.90;;;;;;4898442;29;20124;-64
2023/12/16 11:30:35;;;;;;;16.42;8.85;;;5.30;99.90;;;;;;4898601;29;20379;-64
2023/12/16 11:33:03;;;;;;;16.20;8.88;;;5.40;99.90;;;;;;4897815;29;20071;-64
2023/12/16 11:35:45;;;;;;;17.20;9.65;;;5.50;99.90;;;;;;4896280;29;20406;-64
2023/12/16 11:38:34;;;;;;;17.27;9.38;;;5.70;99.90;;;;;;4898511;29;20048;-64
2023/12/16 11:41:01;;;;;;;16.48;10.30;;;5.50;99.90;;;;;;4892179;29;20067;-64
2023/12/16 11:43:48;;;;;;;14.43;8.57;;;5.60;99.90;;;;;;4892672;29;20033;-64
2023/12/16 11:46:37;;;;;;;14.57;7.65;;;5.50;99.90;;;;;;4897716;29;20046;-64
2023/12/16 11:49:07;;;;;;;14.57;8.23;;;5.20;99.90;;;;;;4893558;29;20498;-64
2023/12/16 11:51:35;;;;;;;14.23;8.27;;;5.30;99.90;;;;;;4896541;29;20044;-64
2023/12/16 11:54:04;;;;;;;14.45;9.35;;;5.40;99.90;;;;;;4899287;29;20506;-64
2023/12/16 11:56:33;;;;;;;16.48;8.40;;;5.30;99.90;;;;;;4894579;29;20517;-64
2023/12/16 11:59:04;;;;;;;14.50;8.68;;;5.30;99.90;;;;;;4895766;29;20119;-64
2023/12/16 12:01:32;;;;;;;17.00;9.20;;;5.00;99.90;;;;;;4890018;29;20051;-64
2023/12/16 12:04:02;;;;;;;16.33;9.43;;;5.00;99.90;;;;;;4890270;29;20048;-64
2023/12/16 12:06:30;;;;;;;14.85;8.80;;;5.20;99.90;;;;;;4897462;29;20052;-64
2023/12/16 12:08:57;;;;;;;16.15;9.38;;;5.00;99.90;;;;;;4887813;29;20045;-63
2023/12/16 12:11:24;;;;;;;16.67;8.95;;;5.00;99.90;;;;;;4896901;29;20522;-64
2023/12/16 12:13:52;;;;;;;15.48;9.27;;;5.10;99.90;;;;;;4890588;29;20040;-64
2023/12/16 12:16:21;;;;;;;17.58;10.35;;;5.20;99.90;;;;;;4903458;29;20041;-64
2023/12/16 12:18:48;;;;;;;16.45;9.77;;;5.40;99.90;;;;;;4896661;29;20046;-64
2023/12/16 12:21:15;;;;;;;;;;;5.50;99.90;;;;;;4897453;29;20072;-64
2023/12/16 12:23:42;;;;;;;12.63;7.47;;;5.70;99.90;;;;;;4890217;29;19971;-64
2023/12/16 12:26:10;;;;;;;14.65;8.43;;;5.80;99.90;;;;;;4897570;29;20160;-64
2023/12/16 12:28:37;;;;;;;15.00;8.40;;;5.70;99.90;;;;;;4890955;29;20057;-64
2023/12/16 12:31:08;;;;;;;14.13;7.50;;;5.70;99.90;;;;;;4898681;29;20057;-64
2023/12/16 12:33:36;;;;;;;12.35;7.15;;;5.50;99.90;;;;;;4896485;29;20056;-64
2023/12/16 12:36:04;;;;;;;14.35;7.65;;;5.50;99.90;;;;;;4897347;29;20123;-64
2023/12/16 12:38:35;;;;;;;11.75;7.00;;;5.60;99.90;;;;;;4896973;29;20037;-64
2023/12/16 12:41:04;;;;;;;13.00;8.20;;;5.60;99.90;;;;;;4897915;29;20559;-64
2023/12/16 12:43:34;;;;;;;11.05;7.10;;;5.50;99.90;;;;;;4893376;29;20048;-64
2023/12/16 12:46:09;;;;;;;12.63;7.07;;;5.60;99.90;;;;;;4896150;29;20052;-63